sensor_id;sensor_type;location;lat;lon;timestamp;P1;durP1;ratioP1;P2;durP2;ratioP2
17369;SDS011;8802;52.402;4.920;2022-09-09T00:01:51;1.52;;;1.30;;
17369;SDS011;8802;52.402;4.920;2022-09-09T00:04:25;3.42;;;1.35;;
17369;SDS011;8802;52.402;4.920;2022-09-09T00:06:59;2.00;;;1.30;;
17369;SDS011;8802;52.402;4.920;2022-09-09T00:09:32;3.58;;;1.50;;
17369;SDS011;8802;52.402;4.920;2022-09-09T00:12:10;3.05;;;1.52;;
17369;SDS011;8802;52.402;4.920;2022-09-09T00:14:42;2.22;;;1.35;;
17369;SDS011;8802;52.402;4.920;2022-09-09T00:17:18;3.63;;;1.48;;
17369;SDS011;8802;52.402;4.920;2022-09-09T00:19:53;2.75;;;1.45;;
17369;SDS011;8802;52.402;4.920;2022-09-09T00:22:27;3.33;;;1.50;;
17369;SDS011;8802;52.402;4.920;2022-09-09T00:25:01;2.70;;;1.75;;
17369;SDS011;8802;52.402;4.920;2022-09-09T00:27:37;2.85;;;2.20;;
17369;SDS011;8802;52.402;4.920;2022-09-09T00:30:15;3.22;;;2.28;;
17369;SDS011;8802;52.402;4.920;2022-09-09T00:32:45;2.83;;;2.05;;
17369;SDS011;8802;52.402;4.920;2022-09-09T00:35:16;3.60;;;2.28;;
17369;SDS011;8802;52.402;4.920;2022-09-09T00:37:48;4.18;;;2.20;;
17369;SDS011;8802;52.402;4.920;2022-09-09T00:40:22;4.03;;;2.40;;
17369;SDS011;8802;52.402;4.920;2022-09-09T00:42:53;2.95;;;2.22;;
17369;SDS011;8802;52.402;4.920;2022-09-09T00:45:39;2.95;;;2.03;;
17369;SDS011;8802;52.402;4.920;2022-09-09T00:48:27;3.20;;;2.40;;
17369;SDS011;8802;52.402;4.920;2022-09-09T00:51:02;2.25;;;2.03;;
17369;SDS011;8802;52.402;4.920;2022-09-09T00:53:38;2.33;;;2.17;;
17369;SDS011;8802;52.402;4.920;2022-09-09T00:56:12;4.78;;;3.08;;
17369;SDS011;8802;52.402;4.920;2022-09-09T00:58:40;3.53;;;2.67;;
17369;SDS011;8802;52.402;4.920;2022-09-09T01:01:10;4.20;;;3.20;;
17369;SDS011;8802;52.402;4.920;2022-09-09T01:03:39;4.22;;;3.20;;
17369;SDS011;8802;52.402;4.920;2022-09-09T01:06:14;3.33;;;2.90;;
17369;SDS011;8802;52.402;4.920;2022-09-09T01:08:52;4.25;;;2.75;;
17369;SDS011;8802;52.402;4.920;2022-09-09T01:11:33;4.50;;;2.95;;
17369;SDS011;8802;52.402;4.920;2022-09-09T01:14:11;3.30;;;3.00;;
17369;SDS011;8802;52.402;4.920;2022-09-09T01:16:45;4.15;;;3.67;;
17369;SDS011;8802;52.402;4.920;2022-09-09T01:19:15;4.10;;;3.22;;
17369;SDS011;8802;52.402;4.920;2022-09-09T01:21:54;3.55;;;3.25;;
17369;SDS011;8802;52.402;4.920;2022-09-09T01:24:30;3.58;;;3.28;;
17369;SDS011;8802;52.402;4.920;2022-09-09T01:27:06;4.22;;;3.70;;
17369;SDS011;8802;52.402;4.920;2022-09-09T01:29:35;4.80;;;3.80;;
17369;SDS011;8802;52.402;4.920;2022-09-09T01:32:35;4.38;;;3.58;;
17369;SDS011;8802;52.402;4.920;2022-09-09T01:35:08;4.35;;;3.70;;
17369;SDS011;8802;52.402;4.920;2022-09-09T01:37:41;5.97;;;4.65;;
17369;SDS011;8802;52.402;4.920;2022-09-09T01:40:08;4.68;;;3.95;;
17369;SDS011;8802;52.402;4.920;2022-09-09T01:42:35;5.53;;;4.47;;
17369;SDS011;8802;52.402;4.920;2022-09-09T01:45:02;5.80;;;4.03;;
17369;SDS011;8802;52.402;4.920;2022-09-09T01:47:30;5.72;;;4.75;;
17369;SDS011;8802;52.402;4.920;2022-09-09T01:49:58;4.45;;;4.13;;
17369;SDS011;8802;52.402;4.920;2022-09-09T01:52:27;5.47;;;4.97;;
17369;SDS011;8802;52.402;4.920;2022-09-09T01:54:55;5.80;;;5.28;;
17369;SDS011;8802;52.402;4.920;2022-09-09T01:57:23;4.85;;;4.35;;
17369;SDS011;8802;52.402;4.920;2022-09-09T02:00:04;5.22;;;4.30;;
17369;SDS011;8802;52.402;4.920;2022-09-09T02:02:35;5.18;;;4.13;;
17369;SDS011;8802;52.402;4.920;2022-09-09T02:05:13;4.93;;;4.47;;
17369;SDS011;8802;52.402;4.920;2022-09-09T02:07:51;5.65;;;5.13;;
17369;SDS011;8802;52.402;4.920;2022-09-09T02:10:24;4.05;;;3.75;;
17369;SDS011;8802;52.402;4.920;2022-09-09T02:12:57;6.03;;;5.20;;
17369;SDS011;8802;52.402;4.920;2022-09-09T02:15:30;5.85;;;5.25;;
17369;SDS011;8802;52.402;4.920;2022-09-09T02:18:03;7.47;;;5.25;;
17369;SDS011;8802;52.402;4.920;2022-09-09T02:20:35;6.03;;;4.57;;
17369;SDS011;8802;52.402;4.920;2022-09-09T02:23:04;6.70;;;4.70;;
17369;SDS011;8802;52.402;4.920;2022-09-09T02:25:32;4.45;;;4.05;;
17369;SDS011;8802;52.402;4.920;2022-09-09T02:28:01;4.40;;;4.00;;
17369;SDS011;8802;52.402;4.920;2022-09-09T02:30:32;5.25;;;4.75;;
17369;SDS011;8802;52.402;4.920;2022-09-09T02:33:01;4.45;;;4.03;;
17369;SDS011;8802;52.402;4.920;2022-09-09T02:35:31;6.22;;;4.97;;
17369;SDS011;8802;52.402;4.920;2022-09-09T02:38:04;5.85;;;4.82;;
17369;SDS011;8802;52.402;4.920;2022-09-09T02:40:34;7.45;;;5.18;;
17369;SDS011;8802;52.402;4.920;2022-09-09T02:43:01;4.85;;;4.45;;
17369;SDS011;8802;52.402;4.920;2022-09-09T02:45:30;5.97;;;5.05;;
17369;SDS011;8802;52.402;4.920;2022-09-09T02:48:03;6.07;;;5.47;;
17369;SDS011;8802;52.402;4.920;2022-09-09T02:50:37;7.10;;;5.47;;
17369;SDS011;8802;52.402;4.920;2022-09-09T02:53:12;5.88;;;5.28;;
17369;SDS011;8802;52.402;4.920;2022-09-09T02:55:45;5.10;;;4.60;;
17369;SDS011;8802;52.402;4.920;2022-09-09T02:58:14;6.00;;;5.38;;
17369;SDS011;8802;52.402;4.920;2022-09-09T03:00:43;6.60;;;5.88;;
17369;SDS011;8802;52.402;4.920;2022-09-09T03:03:11;7.22;;;4.78;;
17369;SDS011;8802;52.402;4.920;2022-09-09T03:05:38;5.57;;;4.40;;
17369;SDS011;8802;52.402;4.920;2022-09-09T03:08:05;5.38;;;4.88;;
17369;SDS011;8802;52.402;4.920;2022-09-09T03:10:34;5.53;;;4.82;;
17369;SDS011;8802;52.402;4.920;2022-09-09T03:13:02;4.93;;;4.38;;
17369;SDS011;8802;52.402;4.920;2022-09-09T03:15:29;4.80;;;4.38;;
17369;SDS011;8802;52.402;4.920;2022-09-09T03:17:56;5.20;;;4.70;;
17369;SDS011;8802;52.402;4.920;2022-09-09T03:20:23;4.50;;;4.10;;
17369;SDS011;8802;52.402;4.920;2022-09-09T03:22:51;5.25;;;4.78;;
17369;SDS011;8802;52.402;4.920;2022-09-09T03:25:18;5.93;;;4.85;;
17369;SDS011;8802;52.402;4.920;2022-09-09T03:27:46;5.00;;;4.25;;
17369;SDS011;8802;52.402;4.920;2022-09-09T03:30:14;5.07;;;4.68;;
17369;SDS011;8802;52.402;4.920;2022-09-09T03:32:41;5.20;;;4.70;;
17369;SDS011;8802;52.402;4.920;2022-09-09T03:35:08;5.03;;;4.53;;
17369;SDS011;8802;52.402;4.920;2022-09-09T03:37:35;6.03;;;4.78;;
17369;SDS011;8802;52.402;4.920;2022-09-09T03:40:04;5.75;;;5.15;;
17369;SDS011;8802;52.402;4.920;2022-09-09T03:42:31;5.53;;;4.57;;
17369;SDS011;8802;52.402;4.920;2022-09-09T03:45:00;5.60;;;4.82;;
17369;SDS011;8802;52.402;4.920;2022-09-09T03:47:27;6.03;;;4.78;;
17369;SDS011;8802;52.402;4.920;2022-09-09T03:49:54;6.35;;;5.50;;
17369;SDS011;8802;52.402;4.920;2022-09-09T03:52:21;5.97;;;5.20;;
17369;SDS011;8802;52.402;4.920;2022-09-09T03:54:50;5.50;;;4.97;;
17369;SDS011;8802;52.402;4.920;2022-09-09T03:57:17;6.45;;;5.85;;
17369;SDS011;8802;52.402;4.920;2022-09-09T03:59:44;6.15;;;5.55;;
17369;SDS011;8802;52.402;4.920;2022-09-09T04:02:13;6.70;;;5.03;;
17369;SDS011;8802;52.402;4.920;2022-09-09T04:04:40;6.55;;;5.95;;
17369;SDS011;8802;52.402;4.920;2022-09-09T04:07:07;6.65;;;5.40;;
17369;SDS011;8802;52.402;4.920;2022-09-09T04:09:34;6.30;;;5.57;;
17369;SDS011;8802;52.402;4.920;2022-09-09T04:12:01;6.72;;;6.07;;
17369;SDS011;8802;52.402;4.920;2022-09-09T04:14:28;6.00;;;5.00;;
17369;SDS011;8802;52.402;4.920;2022-09-09T04:16:55;5.47;;;4.85;;
17369;SDS011;8802;52.402;4.920;2022-09-09T04:19:25;6.93;;;5.47;;
17369;SDS011;8802;52.402;4.920;2022-09-09T04:21:53;6.18;;;5.57;;
17369;SDS011;8802;52.402;4.920;2022-09-09T04:24:20;6.10;;;5.50;;
17369;SDS011;8802;52.402;4.920;2022-09-09T04:26:47;6.88;;;5.28;;
17369;SDS011;8802;52.402;4.920;2022-09-09T04:29:15;6.63;;;5.20;;
17369;SDS011;8802;52.402;4.920;2022-09-09T04:31:42;6.78;;;5.10;;
17369;SDS011;8802;52.402;4.920;2022-09-09T04:34:09;6.22;;;4.90;;
17369;SDS011;8802;52.402;4.920;2022-09-09T04:36:38;5.88;;;4.13;;
17369;SDS011;8802;52.402;4.920;2022-09-09T04:39:05;5.53;;;4.30;;
17369;SDS011;8802;52.402;4.920;2022-09-09T04:41:32;5.80;;;3.80;;
17369;SDS011;8802;52.402;4.920;2022-09-09T04:44:02;7.03;;;4.38;;
17369;SDS011;8802;52.402;4.920;2022-09-09T04:46:29;6.25;;;4.35;;
17369;SDS011;8802;52.402;4.920;2022-09-09T04:48:56;5.78;;;4.28;;
17369;SDS011;8802;52.402;4.920;2022-09-09T04:51:23;4.50;;;3.72;;
17369;SDS011;8802;52.402;4.920;2022-09-09T04:53:52;5.65;;;4.45;;
17369;SDS011;8802;52.402;4.920;2022-09-09T04:56:19;6.72;;;3.65;;
17369;SDS011;8802;52.402;4.920;2022-09-09T04:58:46;5.07;;;3.75;;
17369;SDS011;8802;52.402;4.920;2022-09-09T05:01:13;8.32;;;3.35;;
17369;SDS011;8802;52.402;4.920;2022-09-09T05:03:42;5.53;;;3.92;;
17369;SDS011;8802;52.402;4.920;2022-09-09T05:06:10;4.60;;;3.15;;
17369;SDS011;8802;52.402;4.920;2022-09-09T05:08:39;4.03;;;3.20;;
17369;SDS011;8802;52.402;4.920;2022-09-09T05:11:14;3.22;;;2.92;;
17369;SDS011;8802;52.402;4.920;2022-09-09T05:13:42;4.63;;;2.78;;
17369;SDS011;8802;52.402;4.920;2022-09-09T05:16:09;4.00;;;2.67;;
17369;SDS011;8802;52.402;4.920;2022-09-09T05:18:37;2.88;;;2.47;;
17369;SDS011;8802;52.402;4.920;2022-09-09T05:21:04;3.55;;;2.25;;
17369;SDS011;8802;52.402;4.920;2022-09-09T05:23:31;3.63;;;2.60;;
17369;SDS011;8802;52.402;4.920;2022-09-09T05:25:59;2.97;;;2.65;;
17369;SDS011;8802;52.402;4.920;2022-09-09T05:28:28;4.03;;;2.92;;
17369;SDS011;8802;52.402;4.920;2022-09-09T05:30:58;4.93;;;3.00;;
17369;SDS011;8802;52.402;4.920;2022-09-09T05:33:26;4.18;;;2.50;;
17369;SDS011;8802;52.402;4.920;2022-09-09T05:35:57;3.67;;;2.53;;
17369;SDS011;8802;52.402;4.920;2022-09-09T05:38:24;5.22;;;2.65;;
17369;SDS011;8802;52.402;4.920;2022-09-09T05:40:52;7.15;;;2.88;;
17369;SDS011;8802;52.402;4.920;2022-09-09T05:43:19;3.30;;;2.10;;
17369;SDS011;8802;52.402;4.920;2022-09-09T05:45:48;3.50;;;2.20;;
17369;SDS011;8802;52.402;4.920;2022-09-09T05:48:27;4.07;;;2.65;;
17369;SDS011;8802;52.402;4.920;2022-09-09T05:50:55;4.07;;;2.30;;
17369;SDS011;8802;52.402;4.920;2022-09-09T05:53:21;4.35;;;2.13;;
17369;SDS011;8802;52.402;4.920;2022-09-09T05:55:48;6.80;;;2.55;;
17369;SDS011;8802;52.402;4.920;2022-09-09T05:58:15;2.85;;;2.10;;
17369;SDS011;8802;52.402;4.920;2022-09-09T06:00:43;3.67;;;2.40;;
17369;SDS011;8802;52.402;4.920;2022-09-09T06:03:11;5.22;;;2.80;;
17369;SDS011;8802;52.402;4.920;2022-09-09T06:05:38;3.80;;;2.38;;
17369;SDS011;8802;52.402;4.920;2022-09-09T06:08:06;4.13;;;2.10;;
17369;SDS011;8802;52.402;4.920;2022-09-09T06:10:33;3.40;;;2.08;;
17369;SDS011;8802;52.402;4.920;2022-09-09T06:13:00;3.85;;;2.13;;
17369;SDS011;8802;52.402;4.920;2022-09-09T06:15:27;2.55;;;2.05;;
17369;SDS011;8802;52.402;4.920;2022-09-09T06:17:55;5.60;;;2.47;;
17369;SDS011;8802;52.402;4.920;2022-09-09T06:20:24;4.93;;;2.08;;
17369;SDS011;8802;52.402;4.920;2022-09-09T06:22:50;3.80;;;2.25;;
17369;SDS011;8802;52.402;4.920;2022-09-09T06:25:17;3.70;;;2.35;;
17369;SDS011;8802;52.402;4.920;2022-09-09T06:27:48;4.97;;;2.15;;
17369;SDS011;8802;52.402;4.920;2022-09-09T06:30:15;5.07;;;2.10;;
17369;SDS011;8802;52.402;4.920;2022-09-09T06:32:43;6.53;;;2.25;;
17369;SDS011;8802;52.402;4.920;2022-09-09T06:35:10;3.83;;;1.80;;
17369;SDS011;8802;52.402;4.920;2022-09-09T06:37:40;5.35;;;2.08;;
17369;SDS011;8802;52.402;4.920;2022-09-09T06:40:13;5.85;;;2.47;;
17369;SDS011;8802;52.402;4.920;2022-09-09T06:42:41;6.63;;;2.33;;
17369;SDS011;8802;52.402;4.920;2022-09-09T06:45:08;6.47;;;2.10;;
17369;SDS011;8802;52.402;4.920;2022-09-09T06:47:36;5.60;;;2.15;;
17369;SDS011;8802;52.402;4.920;2022-09-09T06:50:03;6.38;;;2.00;;
17369;SDS011;8802;52.402;4.920;2022-09-09T06:52:32;5.80;;;2.30;;
17369;SDS011;8802;52.402;4.920;2022-09-09T06:55:01;6.90;;;2.38;;
17369;SDS011;8802;52.402;4.920;2022-09-09T06:57:28;5.47;;;1.85;;
17369;SDS011;8802;52.402;4.920;2022-09-09T06:59:54;6.60;;;2.20;;
17369;SDS011;8802;52.402;4.920;2022-09-09T07:02:22;6.80;;;2.65;;
17369;SDS011;8802;52.402;4.920;2022-09-09T07:04:49;7.65;;;2.50;;
17369;SDS011;8802;52.402;4.920;2022-09-09T07:07:17;6.80;;;2.50;;
17369;SDS011;8802;52.402;4.920;2022-09-09T07:09:44;4.90;;;2.33;;
17369;SDS011;8802;52.402;4.920;2022-09-09T07:12:13;5.10;;;3.10;;
17369;SDS011;8802;52.402;4.920;2022-09-09T07:14:40;5.47;;;2.50;;
17369;SDS011;8802;52.402;4.920;2022-09-09T07:17:07;6.40;;;2.60;;
17369;SDS011;8802;52.402;4.920;2022-09-09T07:19:34;7.30;;;2.67;;
17369;SDS011;8802;52.402;4.920;2022-09-09T07:22:01;7.57;;;2.78;;
17369;SDS011;8802;52.402;4.920;2022-09-09T07:24:28;8.68;;;3.10;;
17369;SDS011;8802;52.402;4.920;2022-09-09T07:26:55;7.18;;;3.50;;
17369;SDS011;8802;52.402;4.920;2022-09-09T07:29:24;6.57;;;3.08;;
17369;SDS011;8802;52.402;4.920;2022-09-09T07:31:51;6.90;;;2.90;;
17369;SDS011;8802;52.402;4.920;2022-09-09T07:34:18;6.45;;;3.08;;
17369;SDS011;8802;52.402;4.920;2022-09-09T07:36:44;8.48;;;3.10;;
17369;SDS011;8802;52.402;4.920;2022-09-09T07:39:12;5.50;;;3.15;;
17369;SDS011;8802;52.402;4.920;2022-09-09T07:41:42;6.70;;;3.30;;
17369;SDS011;8802;52.402;4.920;2022-09-09T07:44:12;5.68;;;3.50;;
17369;SDS011;8802;52.402;4.920;2022-09-09T07:46:44;7.40;;;3.70;;
17369;SDS011;8802;52.402;4.920;2022-09-09T07:49:12;6.20;;;3.53;;
17369;SDS011;8802;52.402;4.920;2022-09-09T07:51:41;4.68;;;2.80;;
17369;SDS011;8802;52.402;4.920;2022-09-09T07:54:10;6.53;;;3.55;;
17369;SDS011;8802;52.402;4.920;2022-09-09T07:56:38;6.13;;;3.50;;
17369;SDS011;8802;52.402;4.920;2022-09-09T07:59:06;4.43;;;3.50;;
17369;SDS011;8802;52.402;4.920;2022-09-09T08:01:36;5.05;;;3.17;;
17369;SDS011;8802;52.402;4.920;2022-09-09T08:04:06;7.05;;;4.13;;
17369;SDS011;8802;52.402;4.920;2022-09-09T08:06:35;5.10;;;3.40;;
17369;SDS011;8802;52.402;4.920;2022-09-09T08:09:04;4.80;;;3.45;;
17369;SDS011;8802;52.402;4.920;2022-09-09T08:11:32;6.43;;;3.70;;
17369;SDS011;8802;52.402;4.920;2022-09-09T08:14:00;7.90;;;2.80;;
17369;SDS011;8802;52.402;4.920;2022-09-09T08:16:28;6.53;;;3.15;;
17369;SDS011;8802;52.402;4.920;2022-09-09T08:18:57;4.63;;;2.72;;
17369;SDS011;8802;52.402;4.920;2022-09-09T08:21:27;4.85;;;2.97;;
17369;SDS011;8802;52.402;4.920;2022-09-09T08:23:56;5.25;;;2.97;;
17369;SDS011;8802;52.402;4.920;2022-09-09T08:26:24;6.82;;;3.20;;
17369;SDS011;8802;52.402;4.920;2022-09-09T08:28:53;8.15;;;3.40;;
17369;SDS011;8802;52.402;4.920;2022-09-09T08:31:22;5.47;;;3.17;;
17369;SDS011;8802;52.402;4.920;2022-09-09T08:33:50;8.23;;;3.58;;
17369;SDS011;8802;52.402;4.920;2022-09-09T08:36:17;8.45;;;3.03;;
17369;SDS011;8802;52.402;4.920;2022-09-09T08:38:48;7.05;;;3.00;;
17369;SDS011;8802;52.402;4.920;2022-09-09T08:41:22;5.70;;;3.22;;
17369;SDS011;8802;52.402;4.920;2022-09-09T08:44:00;5.03;;;3.45;;
17369;SDS011;8802;52.402;4.920;2022-09-09T08:46:32;5.53;;;2.88;;
17369;SDS011;8802;52.402;4.920;2022-09-09T08:49:05;6.40;;;3.60;;
17369;SDS011;8802;52.402;4.920;2022-09-09T08:51:42;6.10;;;3.60;;
17369;SDS011;8802;52.402;4.920;2022-09-09T08:54:10;5.95;;;3.40;;
17369;SDS011;8802;52.402;4.920;2022-09-09T08:56:37;9.05;;;3.45;;
17369;SDS011;8802;52.402;4.920;2022-09-09T08:59:04;6.60;;;3.17;;
17369;SDS011;8802;52.402;4.920;2022-09-09T09:01:38;4.97;;;2.70;;
17369;SDS011;8802;52.402;4.920;2022-09-09T09:04:14;8.18;;;3.40;;
17369;SDS011;8802;52.402;4.920;2022-09-09T09:07:06;5.60;;;3.00;;
17369;SDS011;8802;52.402;4.920;2022-09-09T09:09:46;6.13;;;3.58;;
17369;SDS011;8802;52.402;4.920;2022-09-09T09:12:24;5.35;;;3.47;;
17369;SDS011;8802;52.402;4.920;2022-09-09T09:14:54;6.57;;;3.22;;
17369;SDS011;8802;52.402;4.920;2022-09-09T09:17:23;5.50;;;3.15;;
17369;SDS011;8802;52.402;4.920;2022-09-09T09:19:53;8.85;;;3.28;;
17369;SDS011;8802;52.402;4.920;2022-09-09T09:22:20;6.10;;;3.40;;
17369;SDS011;8802;52.402;4.920;2022-09-09T09:24:52;4.95;;;3.00;;
17369;SDS011;8802;52.402;4.920;2022-09-09T09:27:24;9.68;;;3.58;;
17369;SDS011;8802;52.402;4.920;2022-09-09T09:29:58;5.38;;;2.85;;
17369;SDS011;8802;52.402;4.920;2022-09-09T09:32:28;5.47;;;3.10;;
17369;SDS011;8802;52.402;4.920;2022-09-09T09:34:59;8.32;;;3.67;;
17369;SDS011;8802;52.402;4.920;2022-09-09T09:37:31;6.82;;;3.50;;
17369;SDS011;8802;52.402;4.920;2022-09-09T09:40:09;7.50;;;3.50;;
17369;SDS011;8802;52.402;4.920;2022-09-09T09:42:36;7.28;;;3.10;;
17369;SDS011;8802;52.402;4.920;2022-09-09T09:45:13;6.60;;;2.90;;
17369;SDS011;8802;52.402;4.920;2022-09-09T09:47:43;5.05;;;3.13;;
17369;SDS011;8802;52.402;4.920;2022-09-09T09:50:16;7.18;;;2.85;;
17369;SDS011;8802;52.402;4.920;2022-09-09T09:52:51;5.75;;;3.00;;
17369;SDS011;8802;52.402;4.920;2022-09-09T09:55:23;5.28;;;2.78;;
17369;SDS011;8802;52.402;4.920;2022-09-09T09:57:52;7.45;;;2.83;;
17369;SDS011;8802;52.402;4.920;2022-09-09T10:00:20;6.65;;;2.83;;
17369;SDS011;8802;52.402;4.920;2022-09-09T10:02:49;6.22;;;2.45;;
17369;SDS011;8802;52.402;4.920;2022-09-09T10:05:19;6.60;;;2.40;;
17369;SDS011;8802;52.402;4.920;2022-09-09T10:07:57;6.22;;;2.35;;
17369;SDS011;8802;52.402;4.920;2022-09-09T10:10:31;5.75;;;2.53;;
17369;SDS011;8802;52.402;4.920;2022-09-09T10:13:10;6.20;;;2.25;;
17369;SDS011;8802;52.402;4.920;2022-09-09T10:15:45;5.53;;;2.80;;
17369;SDS011;8802;52.402;4.920;2022-09-09T10:21:21;8.73;;;2.67;;
17369;SDS011;8802;52.402;4.920;2022-09-09T10:24:15;5.88;;;2.35;;
17369;SDS011;8802;52.402;4.920;2022-09-09T10:27:09;4.78;;;2.40;;
17369;SDS011;8802;52.402;4.920;2022-09-09T10:32:37;3.78;;;2.20;;
17369;SDS011;8802;52.402;4.920;2022-09-09T10:35:12;4.55;;;1.90;;
17369;SDS011;8802;52.402;4.920;2022-09-09T10:37:54;5.03;;;2.10;;
17369;SDS011;8802;52.402;4.920;2022-09-09T10:40:37;5.70;;;1.58;;
17369;SDS011;8802;52.402;4.920;2022-09-09T10:43:13;4.03;;;1.85;;
17369;SDS011;8802;52.402;4.920;2022-09-09T10:45:59;5.82;;;2.17;;
17369;SDS011;8802;52.402;4.920;2022-09-09T10:48:36;3.97;;;1.55;;
17369;SDS011;8802;52.402;4.920;2022-09-09T10:51:21;4.72;;;1.85;;
17369;SDS011;8802;52.402;4.920;2022-09-09T10:54:06;5.95;;;1.80;;
17369;SDS011;8802;52.402;4.920;2022-09-09T10:56:48;4.47;;;1.58;;
17369;SDS011;8802;52.402;4.920;2022-09-09T10:59:24;4.93;;;1.80;;
17369;SDS011;8802;52.402;4.920;2022-09-09T11:01:56;4.55;;;1.90;;
17369;SDS011;8802;52.402;4.920;2022-09-09T11:04:28;4.00;;;1.77;;
17369;SDS011;8802;52.402;4.920;2022-09-09T11:06:59;3.63;;;1.77;;
17369;SDS011;8802;52.402;4.920;2022-09-09T11:09:33;3.80;;;1.80;;
17369;SDS011;8802;52.402;4.920;2022-09-09T11:12:04;8.05;;;1.80;;
17369;SDS011;8802;52.402;4.920;2022-09-09T11:14:38;4.13;;;2.08;;
17369;SDS011;8802;52.402;4.920;2022-09-09T11:17:12;4.13;;;1.85;;
17369;SDS011;8802;52.402;4.920;2022-09-09T11:19:42;4.85;;;1.65;;
17369;SDS011;8802;52.402;4.920;2022-09-09T11:22:14;4.70;;;1.95;;
17369;SDS011;8802;52.402;4.920;2022-09-09T11:24:45;5.13;;;2.20;;
17369;SDS011;8802;52.402;4.920;2022-09-09T11:27:18;3.90;;;1.63;;
17369;SDS011;8802;52.402;4.920;2022-09-09T11:30:05;4.82;;;1.38;;
17369;SDS011;8802;52.402;4.920;2022-09-09T11:32:47;3.40;;;1.70;;
17369;SDS011;8802;52.402;4.920;2022-09-09T11:35:33;6.47;;;1.90;;
17369;SDS011;8802;52.402;4.920;2022-09-09T11:38:16;5.00;;;1.80;;
17369;SDS011;8802;52.402;4.920;2022-09-09T11:40:48;4.80;;;1.70;;
17369;SDS011;8802;52.402;4.920;2022-09-09T11:43:23;4.40;;;1.35;;
17369;SDS011;8802;52.402;4.920;2022-09-09T11:45:55;3.85;;;1.58;;
17369;SDS011;8802;52.402;4.920;2022-09-09T11:48:26;3.22;;;1.50;;
17369;SDS011;8802;52.402;4.920;2022-09-09T11:50:59;4.20;;;1.75;;
17369;SDS011;8802;52.402;4.920;2022-09-09T11:53:30;3.53;;;1.30;;
17369;SDS011;8802;52.402;4.920;2022-09-09T11:56:05;2.42;;;1.23;;
17369;SDS011;8802;52.402;4.920;2022-09-09T11:58:36;3.83;;;1.40;;
17369;SDS011;8802;52.402;4.920;2022-09-09T12:01:25;2.42;;;1.15;;
17369;SDS011;8802;52.402;4.920;2022-09-09T12:03:59;2.58;;;1.25;;
17369;SDS011;8802;52.402;4.920;2022-09-09T12:06:40;1.77;;;0.95;;
17369;SDS011;8802;52.402;4.920;2022-09-09T12:09:14;2.72;;;1.30;;
17369;SDS011;8802;52.402;4.920;2022-09-09T12:11:45;2.17;;;1.17;;
17369;SDS011;8802;52.402;4.920;2022-09-09T12:14:19;3.35;;;1.25;;
17369;SDS011;8802;52.402;4.920;2022-09-09T12:16:49;4.68;;;1.15;;
17369;SDS011;8802;52.402;4.920;2022-09-09T12:19:17;4.20;;;1.10;;
17369;SDS011;8802;52.402;4.920;2022-09-09T12:21:53;2.17;;;1.10;;
17369;SDS011;8802;52.402;4.920;2022-09-09T12:24:26;1.70;;;1.27;;
17369;SDS011;8802;52.402;4.920;2022-09-09T12:27:00;2.53;;;1.30;;
17369;SDS011;8802;52.402;4.920;2022-09-09T12:29:37;2.75;;;1.00;;
17369;SDS011;8802;52.402;4.920;2022-09-09T12:32:13;3.30;;;1.30;;
17369;SDS011;8802;52.402;4.920;2022-09-09T12:34:44;3.10;;;1.60;;
17369;SDS011;8802;52.402;4.920;2022-09-09T12:37:17;3.33;;;1.52;;
17369;SDS011;8802;52.402;4.920;2022-09-09T12:39:51;2.70;;;1.10;;
17369;SDS011;8802;52.402;4.920;2022-09-09T12:42:21;3.47;;;1.50;;
17369;SDS011;8802;52.402;4.920;2022-09-09T12:44:53;4.68;;;1.75;;
17369;SDS011;8802;52.402;4.920;2022-09-09T12:47:23;4.68;;;1.75;;
17369;SDS011;8802;52.402;4.920;2022-09-09T12:49:55;2.83;;;1.55;;
17369;SDS011;8802;52.402;4.920;2022-09-09T12:52:24;5.43;;;2.00;;
17369;SDS011;8802;52.402;4.920;2022-09-09T12:54:55;3.00;;;1.55;;
17369;SDS011;8802;52.402;4.920;2022-09-09T12:57:23;2.80;;;1.60;;
17369;SDS011;8802;52.402;4.920;2022-09-09T12:59:51;3.17;;;1.88;;
17369;SDS011;8802;52.402;4.920;2022-09-09T13:02:20;3.22;;;1.83;;
17369;SDS011;8802;52.402;4.920;2022-09-09T13:04:49;3.28;;;1.80;;
17369;SDS011;8802;52.402;4.920;2022-09-09T13:07:17;4.45;;;1.80;;
17369;SDS011;8802;52.402;4.920;2022-09-09T13:09:45;5.53;;;1.98;;
17369;SDS011;8802;52.402;4.920;2022-09-09T13:12:14;4.32;;;2.00;;
17369;SDS011;8802;52.402;4.920;2022-09-09T13:14:44;4.43;;;2.20;;
17369;SDS011;8802;52.402;4.920;2022-09-09T13:17:18;3.88;;;2.03;;
17369;SDS011;8802;52.402;4.920;2022-09-09T13:19:49;3.95;;;2.45;;
17369;SDS011;8802;52.402;4.920;2022-09-09T13:22:21;2.83;;;2.10;;
17369;SDS011;8802;52.402;4.920;2022-09-09T13:25:03;3.78;;;2.38;;
17369;SDS011;8802;52.402;4.920;2022-09-09T13:27:33;3.08;;;2.28;;
17369;SDS011;8802;52.402;4.920;2022-09-09T13:32:47;3.38;;;1.90;;
17369;SDS011;8802;52.402;4.920;2022-09-09T13:35:27;3.35;;;2.10;;
17369;SDS011;8802;52.402;4.920;2022-09-09T13:37:54;3.85;;;2.08;;
17369;SDS011;8802;52.402;4.920;2022-09-09T13:40:22;4.38;;;2.25;;
17369;SDS011;8802;52.402;4.920;2022-09-09T13:42:51;2.75;;;1.77;;
17369;SDS011;8802;52.402;4.920;2022-09-09T13:45:21;5.50;;;2.22;;
17369;SDS011;8802;52.402;4.920;2022-09-09T13:47:51;2.55;;;1.70;;
17369;SDS011;8802;52.402;4.920;2022-09-09T13:50:20;2.08;;;1.40;;
17369;SDS011;8802;52.402;4.920;2022-09-09T13:52:49;3.30;;;1.52;;
17369;SDS011;8802;52.402;4.920;2022-09-09T13:55:18;3.17;;;1.83;;
17369;SDS011;8802;52.402;4.920;2022-09-09T13:57:50;4.85;;;1.80;;
17369;SDS011;8802;52.402;4.920;2022-09-09T14:00:18;3.70;;;1.30;;
17369;SDS011;8802;52.402;4.920;2022-09-09T14:02:45;2.90;;;1.50;;
17369;SDS011;8802;52.402;4.920;2022-09-09T14:05:13;2.60;;;1.40;;
17369;SDS011;8802;52.402;4.920;2022-09-09T14:07:41;3.25;;;1.48;;
17369;SDS011;8802;52.402;4.920;2022-09-09T14:10:10;1.88;;;1.30;;
17369;SDS011;8802;52.402;4.920;2022-09-09T14:12:37;3.10;;;1.48;;
17369;SDS011;8802;52.402;4.920;2022-09-09T14:15:06;2.17;;;1.40;;
17369;SDS011;8802;52.402;4.920;2022-09-09T14:17:35;1.95;;;1.20;;
17369;SDS011;8802;52.402;4.920;2022-09-09T14:20:02;3.00;;;1.30;;
17369;SDS011;8802;52.402;4.920;2022-09-09T14:22:33;2.95;;;1.55;;
17369;SDS011;8802;52.402;4.920;2022-09-09T14:25:00;2.40;;;1.10;;
17369;SDS011;8802;52.402;4.920;2022-09-09T14:27:28;2.17;;;1.25;;
17369;SDS011;8802;52.402;4.920;2022-09-09T14:29:55;3.58;;;1.33;;
17369;SDS011;8802;52.402;4.920;2022-09-09T14:32:22;3.58;;;1.35;;
17369;SDS011;8802;52.402;4.920;2022-09-09T14:34:49;3.05;;;1.35;;
17369;SDS011;8802;52.402;4.920;2022-09-09T14:37:16;4.78;;;1.27;;
17369;SDS011;8802;52.402;4.920;2022-09-09T14:39:43;3.65;;;0.95;;
17369;SDS011;8802;52.402;4.920;2022-09-09T14:42:12;2.90;;;1.58;;
17369;SDS011;8802;52.402;4.920;2022-09-09T14:44:40;3.58;;;1.40;;
17369;SDS011;8802;52.402;4.920;2022-09-09T14:47:07;2.55;;;1.20;;
17369;SDS011;8802;52.402;4.920;2022-09-09T14:49:35;3.22;;;1.25;;
17369;SDS011;8802;52.402;4.920;2022-09-09T14:52:02;3.38;;;1.25;;
17369;SDS011;8802;52.402;4.920;2022-09-09T14:54:29;4.88;;;1.13;;
17369;SDS011;8802;52.402;4.920;2022-09-09T14:56:57;2.85;;;1.15;;
17369;SDS011;8802;52.402;4.920;2022-09-09T14:59:24;1.92;;;1.13;;
17369;SDS011;8802;52.402;4.920;2022-09-09T15:01:53;1.88;;;1.15;;
17369;SDS011;8802;52.402;4.920;2022-09-09T15:04:20;2.63;;;0.75;;
17369;SDS011;8802;52.402;4.920;2022-09-09T15:06:47;2.28;;;0.90;;
17369;SDS011;8802;52.402;4.920;2022-09-09T15:09:15;5.30;;;1.15;;
17369;SDS011;8802;52.402;4.920;2022-09-09T15:11:42;2.05;;;0.65;;
17369;SDS011;8802;52.402;4.920;2022-09-09T15:14:09;3.15;;;0.60;;
17369;SDS011;8802;52.402;4.920;2022-09-09T15:16:37;2.15;;;0.70;;
17369;SDS011;8802;52.402;4.920;2022-09-09T15:19:06;2.53;;;0.80;;
17369;SDS011;8802;52.402;4.920;2022-09-09T15:21:34;1.17;;;0.50;;
17369;SDS011;8802;52.402;4.920;2022-09-09T15:24:03;1.10;;;0.55;;
17369;SDS011;8802;52.402;4.920;2022-09-09T15:26:32;2.33;;;0.77;;
17369;SDS011;8802;52.402;4.920;2022-09-09T15:28:59;1.40;;;0.60;;
17369;SDS011;8802;52.402;4.920;2022-09-09T15:31:27;3.40;;;0.90;;